sensor_id;sensor_type;location;lat;lon;timestamp;P1;durP1;ratioP1;P2;durP2;ratioP2
65033;SDS011;51601;51.356;12.458;2022-09-09T00:00:27;6.10;;;2.28;;
65033;SDS011;51601;51.356;12.458;2022-09-09T00:04:50;6.35;;;2.83;;
65033;SDS011;51601;51.356;12.458;2022-09-09T00:09:14;7.63;;;3.42;;
65033;SDS011;51601;51.356;12.458;2022-09-09T00:13:32;8.00;;;2.60;;
65033;SDS011;51601;51.356;12.458;2022-09-09T00:17:52;6.13;;;2.70;;
65033;SDS011;51601;51.356;12.458;2022-09-09T00:22:13;7.05;;;2.60;;
65033;SDS011;51601;51.356;12.458;2022-09-09T00:26:30;5.83;;;2.93;;
65033;SDS011;51601;51.356;12.458;2022-09-09T00:30:50;8.23;;;2.55;;
65033;SDS011;51601;51.356;12.458;2022-09-09T00:35:11;6.50;;;2.67;;
65033;SDS011;51601;51.356;12.458;2022-09-09T00:39:31;7.83;;;2.77;;
65033;SDS011;51601;51.356;12.458;2022-09-09T00:43:56;7.45;;;2.88;;
65033;SDS011;51601;51.356;12.458;2022-09-09T00:48:14;7.80;;;2.80;;
65033;SDS011;51601;51.356;12.458;2022-09-09T00:52:32;6.25;;;2.65;;
65033;SDS011;51601;51.356;12.458;2022-09-09T00:56:54;6.80;;;2.63;;
65033;SDS011;51601;51.356;12.458;2022-09-09T01:01:17;6.55;;;2.65;;
65033;SDS011;51601;51.356;12.458;2022-09-09T01:05:35;5.85;;;2.55;;
65033;SDS011;51601;51.356;12.458;2022-09-09T01:09:55;5.80;;;2.80;;
65033;SDS011;51601;51.356;12.458;2022-09-09T01:14:13;7.28;;;2.40;;
65033;SDS011;51601;51.356;12.458;2022-09-09T01:18:36;6.03;;;2.78;;
65033;SDS011;51601;51.356;12.458;2022-09-09T01:23:00;7.80;;;2.70;;
65033;SDS011;51601;51.356;12.458;2022-09-09T01:27:28;6.22;;;2.80;;
65033;SDS011;51601;51.356;12.458;2022-09-09T01:31:51;8.15;;;2.80;;
65033;SDS011;51601;51.356;12.458;2022-09-09T01:36:08;7.35;;;2.50;;
65033;SDS011;51601;51.356;12.458;2022-09-09T01:40:33;6.43;;;2.70;;
65033;SDS011;51601;51.356;12.458;2022-09-09T01:44:49;8.60;;;2.33;;
65033;SDS011;51601;51.356;12.458;2022-09-09T01:49:03;7.13;;;2.47;;
65033;SDS011;51601;51.356;12.458;2022-09-09T01:53:21;7.80;;;2.93;;
65033;SDS011;51601;51.356;12.458;2022-09-09T01:57:37;5.90;;;2.30;;
65033;SDS011;51601;51.356;12.458;2022-09-09T02:02:00;8.18;;;2.58;;
65033;SDS011;51601;51.356;12.458;2022-09-09T02:06:26;7.53;;;2.43;;
65033;SDS011;51601;51.356;12.458;2022-09-09T02:10:53;6.50;;;2.50;;
65033;SDS011;51601;51.356;12.458;2022-09-09T02:15:23;7.75;;;2.50;;
65033;SDS011;51601;51.356;12.458;2022-09-09T02:19:45;5.85;;;2.30;;
65033;SDS011;51601;51.356;12.458;2022-09-09T02:24:14;8.43;;;2.60;;
65033;SDS011;51601;51.356;12.458;2022-09-09T02:28:36;7.95;;;2.13;;
65033;SDS011;51601;51.356;12.458;2022-09-09T02:32:52;6.95;;;2.67;;
65033;SDS011;51601;51.356;12.458;2022-09-09T02:37:25;5.67;;;2.20;;
65033;SDS011;51601;51.356;12.458;2022-09-09T02:41:43;7.78;;;2.40;;
65033;SDS011;51601;51.356;12.458;2022-09-09T02:45:58;5.45;;;2.05;;
65033;SDS011;51601;51.356;12.458;2022-09-09T02:50:23;6.57;;;2.37;;
65033;SDS011;51601;51.356;12.458;2022-09-09T02:54:48;7.68;;;2.30;;
65033;SDS011;51601;51.356;12.458;2022-09-09T02:59:05;7.82;;;2.60;;
65033;SDS011;51601;51.356;12.458;2022-09-09T03:03:21;8.25;;;2.15;;
65033;SDS011;51601;51.356;12.458;2022-09-09T03:07:36;7.50;;;2.70;;
65033;SDS011;51601;51.356;12.458;2022-09-09T03:11:54;5.82;;;2.50;;
65033;SDS011;51601;51.356;12.458;2022-09-09T03:16:08;6.53;;;2.45;;
65033;SDS011;51601;51.356;12.458;2022-09-09T03:20:28;6.73;;;2.37;;
65033;SDS011;51601;51.356;12.458;2022-09-09T03:24:43;6.07;;;2.30;;
65033;SDS011;51601;51.356;12.458;2022-09-09T03:29:01;6.30;;;2.10;;
65033;SDS011;51601;51.356;12.458;2022-09-09T03:33:15;6.47;;;2.00;;
65033;SDS011;51601;51.356;12.458;2022-09-09T03:37:30;7.28;;;2.33;;
65033;SDS011;51601;51.356;12.458;2022-09-09T03:41:44;6.22;;;2.35;;
65033;SDS011;51601;51.356;12.458;2022-09-09T03:46:01;5.97;;;2.40;;
65033;SDS011;51601;51.356;12.458;2022-09-09T03:50:15;5.40;;;2.20;;
65033;SDS011;51601;51.356;12.458;2022-09-09T03:54:31;7.57;;;2.30;;
65033;SDS011;51601;51.356;12.458;2022-09-09T03:58:46;7.38;;;2.00;;
65033;SDS011;51601;51.356;12.458;2022-09-09T04:03:01;6.83;;;2.43;;
65033;SDS011;51601;51.356;12.458;2022-09-09T04:07:14;8.00;;;2.17;;
65033;SDS011;51601;51.356;12.458;2022-09-09T04:11:29;7.57;;;2.17;;
65033;SDS011;51601;51.356;12.458;2022-09-09T04:15:48;6.10;;;2.17;;
65033;SDS011;51601;51.356;12.458;2022-09-09T04:20:06;6.60;;;2.45;;
65033;SDS011;51601;51.356;12.458;2022-09-09T04:24:23;7.78;;;2.47;;
65033;SDS011;51601;51.356;12.458;2022-09-09T04:28:42;6.57;;;2.25;;
65033;SDS011;51601;51.356;12.458;2022-09-09T04:33:01;7.67;;;2.30;;
65033;SDS011;51601;51.356;12.458;2022-09-09T04:37:16;4.97;;;2.15;;
65033;SDS011;51601;51.356;12.458;2022-09-09T04:41:30;7.28;;;2.35;;
65033;SDS011;51601;51.356;12.458;2022-09-09T04:45:46;6.77;;;2.60;;
65033;SDS011;51601;51.356;12.458;2022-09-09T04:50:04;6.57;;;2.40;;
65033;SDS011;51601;51.356;12.458;2022-09-09T04:54:20;4.88;;;1.73;;
65033;SDS011;51601;51.356;12.458;2022-09-09T04:58:35;8.53;;;2.57;;
65033;SDS011;51601;51.356;12.458;2022-09-09T05:02:50;6.95;;;2.20;;
65033;SDS011;51601;51.356;12.458;2022-09-09T05:07:04;8.45;;;2.28;;
65033;SDS011;51601;51.356;12.458;2022-09-09T05:11:20;6.57;;;2.20;;
65033;SDS011;51601;51.356;12.458;2022-09-09T05:15:38;10.00;;;2.03;;
65033;SDS011;51601;51.356;12.458;2022-09-09T05:19:52;4.35;;;1.80;;
65033;SDS011;51601;51.356;12.458;2022-09-09T05:24:05;6.47;;;2.10;;
65033;SDS011;51601;51.356;12.458;2022-09-09T05:28:21;7.50;;;2.17;;
65033;SDS011;51601;51.356;12.458;2022-09-09T05:32:35;7.72;;;2.00;;
65033;SDS011;51601;51.356;12.458;2022-09-09T05:36:48;5.88;;;1.70;;
65033;SDS011;51601;51.356;12.458;2022-09-09T05:41:06;6.73;;;1.90;;
65033;SDS011;51601;51.356;12.458;2022-09-09T05:45:22;5.00;;;1.98;;
65033;SDS011;51601;51.356;12.458;2022-09-09T05:49:37;7.50;;;2.40;;
65033;SDS011;51601;51.356;12.458;2022-09-09T05:53:51;7.63;;;1.83;;
65033;SDS011;51601;51.356;12.458;2022-09-09T05:58:08;9.53;;;2.30;;
65033;SDS011;51601;51.356;12.458;2022-09-09T06:02:24;7.65;;;2.00;;
65033;SDS011;51601;51.356;12.458;2022-09-09T06:06:39;7.85;;;2.13;;
65033;SDS011;51601;51.356;12.458;2022-09-09T06:11:00;6.70;;;2.10;;
65033;SDS011;51601;51.356;12.458;2022-09-09T06:15:15;8.55;;;2.10;;
65033;SDS011;51601;51.356;12.458;2022-09-09T06:19:31;7.25;;;2.17;;
65033;SDS011;51601;51.356;12.458;2022-09-09T06:23:46;6.17;;;1.90;;
65033;SDS011;51601;51.356;12.458;2022-09-09T06:28:00;6.20;;;2.10;;
65033;SDS011;51601;51.356;12.458;2022-09-09T06:32:15;6.10;;;2.10;;
65033;SDS011;51601;51.356;12.458;2022-09-09T06:36:32;6.80;;;1.80;;
65033;SDS011;51601;51.356;12.458;2022-09-09T06:40:51;6.73;;;2.10;;
65033;SDS011;51601;51.356;12.458;2022-09-09T06:45:07;7.50;;;2.00;;
65033;SDS011;51601;51.356;12.458;2022-09-09T06:49:30;7.65;;;1.98;;
65033;SDS011;51601;51.356;12.458;2022-09-09T06:53:46;8.83;;;2.33;;
65033;SDS011;51601;51.356;12.458;2022-09-09T06:58:07;6.53;;;2.13;;
65033;SDS011;51601;51.356;12.458;2022-09-09T07:02:21;7.03;;;1.95;;
65033;SDS011;51601;51.356;12.458;2022-09-09T07:06:37;6.33;;;2.00;;
65033;SDS011;51601;51.356;12.458;2022-09-09T07:11:01;6.43;;;2.10;;
65033;SDS011;51601;51.356;12.458;2022-09-09T07:15:22;6.88;;;1.92;;
65033;SDS011;51601;51.356;12.458;2022-09-09T07:19:38;7.78;;;2.03;;
65033;SDS011;51601;51.356;12.458;2022-09-09T07:23:51;6.50;;;1.50;;
65033;SDS011;51601;51.356;12.458;2022-09-09T07:28:08;5.72;;;1.80;;
65033;SDS011;51601;51.356;12.458;2022-09-09T07:32:22;7.28;;;1.80;;
65033;SDS011;51601;51.356;12.458;2022-09-09T07:36:39;7.63;;;1.60;;
65033;SDS011;51601;51.356;12.458;2022-09-09T07:41:02;7.57;;;1.90;;
65033;SDS011;51601;51.356;12.458;2022-09-09T07:45:19;8.18;;;1.90;;
65033;SDS011;51601;51.356;12.458;2022-09-09T07:49:33;4.53;;;1.50;;
65033;SDS011;51601;51.356;12.458;2022-09-09T07:53:51;5.93;;;1.70;;
65033;SDS011;51601;51.356;12.458;2022-09-09T07:58:07;7.10;;;1.60;;
65033;SDS011;51601;51.356;12.458;2022-09-09T08:02:25;6.40;;;1.60;;
65033;SDS011;51601;51.356;12.458;2022-09-09T08:06:42;6.07;;;1.40;;
65033;SDS011;51601;51.356;12.458;2022-09-09T08:11:03;5.55;;;1.70;;
65033;SDS011;51601;51.356;12.458;2022-09-09T08:15:19;6.05;;;1.70;;
65033;SDS011;51601;51.356;12.458;2022-09-09T08:19:34;7.23;;;1.47;;
65033;SDS011;51601;51.356;12.458;2022-09-09T08:23:54;5.13;;;1.50;;
65033;SDS011;51601;51.356;12.458;2022-09-09T08:28:09;7.32;;;1.40;;
65033;SDS011;51601;51.356;12.458;2022-09-09T08:32:23;4.73;;;1.57;;
65033;SDS011;51601;51.356;12.458;2022-09-09T08:36:41;5.25;;;1.60;;
65033;SDS011;51601;51.356;12.458;2022-09-09T08:41:01;4.93;;;1.73;;
65033;SDS011;51601;51.356;12.458;2022-09-09T08:45:39;7.88;;;1.38;;
65033;SDS011;51601;51.356;12.458;2022-09-09T08:50:17;6.47;;;1.27;;
65033;SDS011;51601;51.356;12.458;2022-09-09T08:54:42;6.88;;;1.88;;
65033;SDS011;51601;51.356;12.458;2022-09-09T08:59:05;6.97;;;1.45;;
65033;SDS011;51601;51.356;12.458;2022-09-09T09:03:28;7.13;;;1.63;;
65033;SDS011;51601;51.356;12.458;2022-09-09T09:07:52;6.32;;;1.73;;
65033;SDS011;51601;51.356;12.458;2022-09-09T09:12:20;5.35;;;1.30;;
65033;SDS011;51601;51.356;12.458;2022-09-09T09:16:38;5.43;;;1.40;;
65033;SDS011;51601;51.356;12.458;2022-09-09T09:21:01;6.63;;;1.70;;
65033;SDS011;51601;51.356;12.458;2022-09-09T09:25:25;6.13;;;1.60;;
65033;SDS011;51601;51.356;12.458;2022-09-09T09:29:46;5.50;;;1.60;;
65033;SDS011;51601;51.356;12.458;2022-09-09T09:34:24;6.07;;;1.33;;
65033;SDS011;51601;51.356;12.458;2022-09-09T09:38:51;5.57;;;1.42;;
65033;SDS011;51601;51.356;12.458;2022-09-09T09:43:27;6.88;;;1.40;;
65033;SDS011;51601;51.356;12.458;2022-09-09T09:47:46;5.90;;;1.57;;
65033;SDS011;51601;51.356;12.458;2022-09-09T09:52:19;4.20;;;1.10;;
65033;SDS011;51601;51.356;12.458;2022-09-09T09:56:36;6.57;;;1.30;;
65033;SDS011;51601;51.356;12.458;2022-09-09T10:00:51;5.87;;;1.40;;
65033;SDS011;51601;51.356;12.458;2022-09-09T10:05:14;4.78;;;1.50;;
65033;SDS011;51601;51.356;12.458;2022-09-09T10:09:37;6.68;;;1.40;;
65033;SDS011;51601;51.356;12.458;2022-09-09T10:13:54;4.90;;;1.50;;
65033;SDS011;51601;51.356;12.458;2022-09-09T10:22:56;5.68;;;1.73;;
65033;SDS011;51601;51.356;12.458;2022-09-09T10:27:24;4.93;;;1.30;;
65033;SDS011;51601;51.356;12.458;2022-09-09T10:31:48;6.33;;;1.60;;
65033;SDS011;51601;51.356;12.458;2022-09-09T10:36:13;5.28;;;1.45;;
65033;SDS011;51601;51.356;12.458;2022-09-09T10:40:34;5.18;;;1.52;;
65033;SDS011;51601;51.356;12.458;2022-09-09T10:44:57;5.23;;;1.57;;
65033;SDS011;51601;51.356;12.458;2022-09-09T10:49:25;5.47;;;1.58;;
65033;SDS011;51601;51.356;12.458;2022-09-09T10:54:01;6.60;;;1.35;;
65033;SDS011;51601;51.356;12.458;2022-09-09T10:58:28;7.50;;;1.60;;
65033;SDS011;51601;51.356;12.458;2022-09-09T11:02:48;6.63;;;1.47;;
65033;SDS011;51601;51.356;12.458;2022-09-09T11:07:06;7.97;;;1.65;;
65033;SDS011;51601;51.356;12.458;2022-09-09T11:11:26;3.63;;;1.30;;
65033;SDS011;51601;51.356;12.458;2022-09-09T11:15:44;6.37;;;1.83;;
65033;SDS011;51601;51.356;12.458;2022-09-09T11:20:05;7.68;;;1.80;;
65033;SDS011;51601;51.356;12.458;2022-09-09T11:24:20;6.70;;;1.70;;
65033;SDS011;51601;51.356;12.458;2022-09-09T11:28:40;7.27;;;1.50;;
65033;SDS011;51601;51.356;12.458;2022-09-09T11:33:36;7.00;;;1.30;;
65033;SDS011;51601;51.356;12.458;2022-09-09T11:38:18;6.13;;;1.50;;
65033;SDS011;51601;51.356;12.458;2022-09-09T11:42:38;7.00;;;1.60;;
65033;SDS011;51601;51.356;12.458;2022-09-09T11:46:52;6.83;;;1.40;;
65033;SDS011;51601;51.356;12.458;2022-09-09T11:51:08;5.28;;;1.55;;
65033;SDS011;51601;51.356;12.458;2022-09-09T11:55:29;6.72;;;1.50;;
65033;SDS011;51601;51.356;12.458;2022-09-09T11:59:49;4.23;;;1.40;;
65033;SDS011;51601;51.356;12.458;2022-09-09T12:04:12;5.55;;;1.30;;
65033;SDS011;51601;51.356;12.458;2022-09-09T12:08:34;6.80;;;1.40;;
65033;SDS011;51601;51.356;12.458;2022-09-09T12:12:49;7.93;;;1.43;;
65033;SDS011;51601;51.356;12.458;2022-09-09T12:17:09;7.15;;;1.40;;
65033;SDS011;51601;51.356;12.458;2022-09-09T12:21:34;8.50;;;1.58;;
65033;SDS011;51601;51.356;12.458;2022-09-09T12:26:00;5.65;;;1.45;;
65033;SDS011;51601;51.356;12.458;2022-09-09T12:30:21;6.13;;;1.37;;
65033;SDS011;51601;51.356;12.458;2022-09-09T12:34:39;6.93;;;1.52;;
65033;SDS011;51601;51.356;12.458;2022-09-09T12:38:54;6.40;;;1.42;;
65033;SDS011;51601;51.356;12.458;2022-09-09T12:43:19;5.07;;;1.53;;
65033;SDS011;51601;51.356;12.458;2022-09-09T12:47:37;7.28;;;1.40;;
65033;SDS011;51601;51.356;12.458;2022-09-09T12:51:55;6.53;;;1.50;;
65033;SDS011;51601;51.356;12.458;2022-09-09T12:56:17;6.20;;;1.50;;
65033;SDS011;51601;51.356;12.458;2022-09-09T13:00:34;6.78;;;1.67;;
65033;SDS011;51601;51.356;12.458;2022-09-09T13:04:48;5.85;;;1.33;;
65033;SDS011;51601;51.356;12.458;2022-09-09T13:09:03;6.28;;;1.90;;
65033;SDS011;51601;51.356;12.458;2022-09-09T13:13:18;5.50;;;1.30;;
65033;SDS011;51601;51.356;12.458;2022-09-09T13:17:36;6.45;;;1.50;;
65033;SDS011;51601;51.356;12.458;2022-09-09T13:21:50;8.32;;;2.35;;
65033;SDS011;51601;51.356;12.458;2022-09-09T13:26:05;8.97;;;3.00;;
65033;SDS011;51601;51.356;12.458;2022-09-09T13:30:34;6.00;;;1.63;;
65033;SDS011;51601;51.356;12.458;2022-09-09T13:34:53;7.47;;;2.00;;
65033;SDS011;51601;51.356;12.458;2022-09-09T13:39:13;5.13;;;1.43;;
65033;SDS011;51601;51.356;12.458;2022-09-09T13:43:30;6.63;;;1.58;;
65033;SDS011;51601;51.356;12.458;2022-09-09T13:47:45;6.07;;;1.40;;
65033;SDS011;51601;51.356;12.458;2022-09-09T13:52:08;5.60;;;1.70;;
65033;SDS011;51601;51.356;12.458;2022-09-09T13:56:24;5.23;;;1.47;;
65033;SDS011;51601;51.356;12.458;2022-09-09T14:00:37;7.47;;;1.65;;
65033;SDS011;51601;51.356;12.458;2022-09-09T14:04:51;6.32;;;1.45;;
65033;SDS011;51601;51.356;12.458;2022-09-09T14:09:10;3.57;;;1.10;;
65033;SDS011;51601;51.356;12.458;2022-09-09T14:13:25;11.73;;;1.45;;
65033;SDS011;51601;51.356;12.458;2022-09-09T14:17:39;6.88;;;1.20;;
65033;SDS011;51601;51.356;12.458;2022-09-09T14:21:52;5.83;;;1.50;;
65033;SDS011;51601;51.356;12.458;2022-09-09T14:26:07;5.28;;;1.50;;
65033;SDS011;51601;51.356;12.458;2022-09-09T14:30:21;5.35;;;1.40;;
65033;SDS011;51601;51.356;12.458;2022-09-09T14:34:35;7.63;;;2.33;;
65033;SDS011;51601;51.356;12.458;2022-09-09T14:38:50;7.10;;;1.80;;
65033;SDS011;51601;51.356;12.458;2022-09-09T14:43:05;7.80;;;2.25;;
65033;SDS011;51601;51.356;12.458;2022-09-09T14:47:19;5.85;;;1.90;;
65033;SDS011;51601;51.356;12.458;2022-09-09T14:51:33;6.53;;;1.97;;
65033;SDS011;51601;51.356;12.458;2022-09-09T14:55:47;5.65;;;1.90;;
65033;SDS011;51601;51.356;12.458;2022-09-09T15:00:03;8.57;;;3.28;;
65033;SDS011;51601;51.356;12.458;2022-09-09T15:04:18;6.47;;;1.70;;
65033;SDS011;51601;51.356;12.458;2022-09-09T15:08:32;5.63;;;1.77;;
65033;SDS011;51601;51.356;12.458;2022-09-09T15:12:52;6.22;;;1.70;;
65033;SDS011;51601;51.356;12.458;2022-09-09T15:17:07;4.78;;;1.60;;
65033;SDS011;51601;51.356;12.458;2022-09-09T15:21:22;6.53;;;1.60;;
65033;SDS011;51601;51.356;12.458;2022-09-09T15:25:38;8.43;;;1.85;;
65033;SDS011;51601;51.356;12.458;2022-09-09T15:29:56;4.75;;;1.15;;
65033;SDS011;51601;51.356;12.458;2022-09-09T15:34:13;5.10;;;1.80;;
65033;SDS011;51601;51.356;12.458;2022-09-09T15:38:27;6.38;;;1.88;;
65033;SDS011;51601;51.356;12.458;2022-09-09T15:42:44;7.65;;;1.50;;
65033;SDS011;51601;51.356;12.458;2022-09-09T15:46:58;5.80;;;1.83;;
65033;SDS011;51601;51.356;12.458;2022-09-09T15:51:13;11.70;;;2.80;;
65033;SDS011;51601;51.356;12.458;2022-09-09T15:55:47;5.40;;;1.58;;
65033;SDS011;51601;51.356;12.458;2022-09-09T16:00:09;5.13;;;2.00;;
65033;SDS011;51601;51.356;12.458;2022-09-09T16:04:25;6.80;;;1.30;;
65033;SDS011;51601;51.356;12.458;2022-09-09T16:08:42;6.13;;;1.70;;
65033;SDS011;51601;51.356;12.458;2022-09-09T16:13:00;5.65;;;1.77;;
65033;SDS011;51601;51.356;12.458;2022-09-09T16:17:14;5.17;;;1.77;;
65033;SDS011;51601;51.356;12.458;2022-09-09T16:21:28;5.80;;;1.60;;
65033;SDS011;51601;51.356;12.458;2022-09-09T16:25:44;5.82;;;1.80;;
65033;SDS011;51601;51.356;12.458;2022-09-09T16:30:07;6.47;;;1.90;;
65033;SDS011;51601;51.356;12.458;2022-09-09T16:34:21;8.60;;;1.70;;
65033;SDS011;51601;51.356;12.458;2022-09-09T16:38:35;4.55;;;1.58;;
65033;SDS011;51601;51.356;12.458;2022-09-09T16:42:51;6.32;;;1.65;;
65033;SDS011;51601;51.356;12.458;2022-09-09T16:47:05;6.67;;;1.40;;
65033;SDS011;51601;51.356;12.458;2022-09-09T16:51:19;5.00;;;1.40;;
65033;SDS011;51601;51.356;12.458;2022-09-09T16:55:38;4.72;;;1.30;;
65033;SDS011;51601;51.356;12.458;2022-09-09T16:59:55;6.57;;;1.60;;
65033;SDS011;51601;51.356;12.458;2022-09-09T17:04:16;5.45;;;1.60;;
65033;SDS011;51601;51.356;12.458;2022-09-09T17:08:36;5.30;;;1.52;;
65033;SDS011;51601;51.356;12.458;2022-09-09T17:12:50;6.07;;;1.70;;
65033;SDS011;51601;51.356;12.458;2022-09-09T17:17:06;4.60;;;1.60;;
65033;SDS011;51601;51.356;12.458;2022-09-09T17:21:40;3.65;;;1.17;;
65033;SDS011;51601;51.356;12.458;2022-09-09T17:26:15;5.78;;;1.40;;
65033;SDS011;51601;51.356;12.458;2022-09-09T17:30:30;4.60;;;1.33;;
65033;SDS011;51601;51.356;12.458;2022-09-09T17:34:48;3.97;;;1.20;;
65033;SDS011;51601;51.356;12.458;2022-09-09T17:39:02;6.03;;;1.70;;
65033;SDS011;51601;51.356;12.458;2022-09-09T17:43:17;7.53;;;1.60;;
65033;SDS011;51601;51.356;12.458;2022-09-09T17:47:31;4.80;;;1.30;;
65033;SDS011;51601;51.356;12.458;2022-09-09T17:51:46;5.50;;;1.50;;
65033;SDS011;51601;51.356;12.458;2022-09-09T17:56:03;5.90;;;2.00;;
65033;SDS011;51601;51.356;12.458;2022-09-09T18:00:18;6.10;;;1.98;;
65033;SDS011;51601;51.356;12.458;2022-09-09T18:04:32;4.97;;;1.77;;
65033;SDS011;51601;51.356;12.458;2022-09-09T18:38:07;7.25;;;2.03;;
65033;SDS011;51601;51.356;12.458;2022-09-09T18:42:21;7.55;;;2.30;;
65033;SDS011;51601;51.356;12.458;2022-09-09T18:46:35;6.70;;;2.30;;
65033;SDS011;51601;51.356;12.458;2022-09-09T18:50:52;8.93;;;2.63;;
65033;SDS011;51601;51.356;12.458;2022-09-09T18:55:06;6.57;;;2.00;;
65033;SDS011;51601;51.356;12.458;2022-09-09T18:59:21;6.65;;;2.40;;
65033;SDS011;51601;51.356;12.458;2022-09-09T19:03:36;5.80;;;2.10;;
65033;SDS011;51601;51.356;12.458;2022-09-09T19:07:51;6.03;;;2.03;;
65033;SDS011;51601;51.356;12.458;2022-09-09T19:12:05;6.18;;;2.08;;
65033;SDS011;51601;51.356;12.458;2022-09-09T19:16:19;5.87;;;1.90;;
65033;SDS011;51601;51.356;12.458;2022-09-09T19:20:34;8.13;;;1.90;;
65033;SDS011;51601;51.356;12.458;2022-09-09T19:24:50;8.02;;;2.15;;
65033;SDS011;51601;51.356;12.458;2022-09-09T19:29:03;5.00;;;1.67;;
65033;SDS011;51601;51.356;12.458;2022-09-09T19:33:17;5.22;;;2.00;;
65033;SDS011;51601;51.356;12.458;2022-09-09T19:37:31;6.60;;;2.50;;
65033;SDS011;51601;51.356;12.458;2022-09-09T19:41:47;5.65;;;2.20;;
65033;SDS011;51601;51.356;12.458;2022-09-09T19:46:01;5.60;;;2.33;;
65033;SDS011;51601;51.356;12.458;2022-09-09T19:50:17;5.18;;;2.00;;
65033;SDS011;51601;51.356;12.458;2022-09-09T19:54:31;5.50;;;2.22;;
65033;SDS011;51601;51.356;12.458;2022-09-09T19:58:46;6.03;;;2.00;;
65033;SDS011;51601;51.356;12.458;2022-09-09T20:03:00;6.40;;;2.00;;
65033;SDS011;51601;51.356;12.458;2022-09-09T20:07:30;5.80;;;2.08;;
65033;SDS011;51601;51.356;12.458;2022-09-09T20:11:44;5.23;;;1.93;;
65033;SDS011;51601;51.356;12.458;2022-09-09T20:16:01;6.22;;;2.17;;
65033;SDS011;51601;51.356;12.458;2022-09-09T20:20:17;5.32;;;1.65;;
65033;SDS011;51601;51.356;12.458;2022-09-09T20:24:31;7.60;;;1.98;;
65033;SDS011;51601;51.356;12.458;2022-09-09T20:28:45;5.73;;;1.80;;
65033;SDS011;51601;51.356;12.458;2022-09-09T20:33:02;6.68;;;1.90;;
65033;SDS011;51601;51.356;12.458;2022-09-09T20:37:16;6.55;;;1.67;;
65033;SDS011;51601;51.356;12.458;2022-09-09T20:41:32;6.30;;;2.27;;
65033;SDS011;51601;51.356;12.458;2022-09-09T20:45:48;7.38;;;1.73;;
65033;SDS011;51601;51.356;12.458;2022-09-09T20:50:06;4.60;;;1.60;;
65033;SDS011;51601;51.356;12.458;2022-09-09T20:54:21;4.60;;;1.60;;
65033;SDS011;51601;51.356;12.458;2022-09-09T20:58:37;5.53;;;2.25;;
65033;SDS011;51601;51.356;12.458;2022-09-09T21:02:51;5.72;;;2.00;;
65033;SDS011;51601;51.356;12.458;2022-09-09T21:07:06;6.63;;;2.22;;
65033;SDS011;51601;51.356;12.458;2022-09-09T21:11:20;5.20;;;1.90;;
65033;SDS011;51601;51.356;12.458;2022-09-09T21:15:35;6.68;;;2.50;;
65033;SDS011;51601;51.356;12.458;2022-09-09T21:19:49;6.65;;;1.95;;
65033;SDS011;51601;51.356;12.458;2022-09-09T21:24:09;5.70;;;2.27;;
65033;SDS011;51601;51.356;12.458;2022-09-09T21:28:23;5.93;;;2.20;;
65033;SDS011;51601;51.356;12.458;2022-09-09T21:32:37;8.40;;;2.30;;
65033;SDS011;51601;51.356;12.458;2022-09-09T21:36:51;7.50;;;2.50;;
65033;SDS011;51601;51.356;12.458;2022-09-09T21:41:07;10.93;;;2.55;;
65033;SDS011;51601;51.356;12.458;2022-09-09T21:45:23;7.57;;;2.80;;
65033;SDS011;51601;51.356;12.458;2022-09-09T21:49:38;8.82;;;3.38;;
65033;SDS011;51601;51.356;12.458;2022-09-09T21:53:53;8.07;;;2.90;;
65033;SDS011;51601;51.356;12.458;2022-09-09T21:58:09;9.18;;;2.80;;
65033;SDS011;51601;51.356;12.458;2022-09-09T22:02:24;8.32;;;2.65;;
65033;SDS011;51601;51.356;12.458;2022-09-09T22:06:39;7.20;;;2.73;;
65033;SDS011;51601;51.356;12.458;2022-09-09T22:10:52;7.90;;;2.83;;
65033;SDS011;51601;51.356;12.458;2022-09-09T22:15:08;6.85;;;2.38;;
65033;SDS011;51601;51.356;12.458;2022-09-09T22:19:22;6.97;;;2.50;;
65033;SDS011;51601;51.356;12.458;2022-09-09T22:23:36;6.50;;;2.25;;
65033;SDS011;51601;51.356;12.458;2022-09-09T22:27:50;7.43;;;2.17;;
65033;SDS011;51601;51.356;12.458;2022-09-09T22:32:05;6.78;;;2.53;;
65033;SDS011;51601;51.356;12.458;2022-09-09T22:36:19;5.40;;;1.90;;
65033;SDS011;51601;51.356;12.458;2022-09-09T22:40:33;5.50;;;2.00;;
65033;SDS011;51601;51.356;12.458;2022-09-09T22:44:48;6.32;;;2.25;;
65033;SDS011;51601;51.356;12.458;2022-09-09T22:49:03;7.43;;;2.10;;
65033;SDS011;51601;51.356;12.458;2022-09-09T22:53:17;7.60;;;1.85;;
65033;SDS011;51601;51.356;12.458;2022-09-09T22:57:31;4.93;;;1.65;;
65033;SDS011;51601;51.356;12.458;2022-09-09T23:01:45;7.43;;;1.87;;
65033;SDS011;51601;51.356;12.458;2022-09-09T23:06:01;7.35;;;2.33;;
65033;SDS011;51601;51.356;12.458;2022-09-09T23:10:15;5.00;;;1.98;;
65033;SDS011;51601;51.356;12.458;2022-09-09T23:14:29;6.05;;;1.73;;
65033;SDS011;51601;51.356;12.458;2022-09-09T23:18:44;5.87;;;2.10;;
65033;SDS011;51601;51.356;12.458;2022-09-09T23:23:00;6.30;;;1.95;;
65033;SDS011;51601;51.356;12.458;2022-09-09T23:27:13;6.50;;;2.22;;
65033;SDS011;51601;51.356;12.458;2022-09-09T23:31:28;5.93;;;1.90;;
65033;SDS011;51601;51.356;12.458;2022-09-09T23:35:44;5.38;;;1.70;;
65033;SDS011;51601;51.356;12.458;2022-09-09T23:40:00;6.38;;;1.90;;
65033;SDS011;51601;51.356;12.458;2022-09-09T23:44:14;5.77;;;2.00;;
65033;SDS011;51601;51.356;12.458;2022-09-09T23:48:28;5.97;;;1.67;;
65033;SDS011;51601;51.356;12.458;2022-09-09T23:52:42;6.25;;;1.80;;
65033;SDS011;51601;51.356;12.458;2022-09-09T23:56:58;5.28;;;2.08;;
